createdAt,value
2022-12-16T00:01:35.676Z,5.57
2022-12-16T00:04:03.036Z,6.15
2022-12-16T00:06:33.075Z,8.13
2022-12-16T00:09:01.148Z,11.65
2022-12-16T00:11:28.682Z,12.18
2022-12-16T00:13:55.888Z,5.65
2022-12-16T00:16:23.091Z,15.07
2022-12-16T00:18:51.961Z,3.92
2022-12-16T00:21:20.229Z,1.90
2022-12-16T00:23:47.884Z,1.85
2022-12-16T00:26:15.089Z,9.27
2022-12-16T00:28:44.011Z,4.15
2022-12-16T00:31:11.441Z,13.07
2022-12-16T00:33:38.731Z,5.38
2022-12-16T00:36:06.807Z,8.63
2022-12-16T00:38:33.947Z,3.88
2022-12-16T00:41:01.863Z,3.63
2022-12-16T00:43:29.159Z,6.80
2022-12-16T00:45:56.624Z,3.63
2022-12-16T00:48:23.772Z,9.50
2022-12-16T00:50:55.450Z,9.73
2022-12-16T00:53:24.337Z,2.60
2022-12-16T00:55:52.711Z,13.38
2022-12-16T00:58:20.827Z,10.68
2022-12-16T01:00:48.024Z,9.75
2022-12-16T01:03:21.013Z,9.80
2022-12-16T01:05:48.869Z,4.30
2022-12-16T01:08:16.039Z,5.45
2022-12-16T01:10:43.179Z,5.25
2022-12-16T01:13:10.313Z,7.22
2022-12-16T01:15:38.152Z,11.45
2022-12-16T01:18:05.700Z,5.88
2022-12-16T01:20:34.736Z,11.55
2022-12-16T01:23:01.825Z,6.38
2022-12-16T01:25:28.967Z,3.10
2022-12-16T01:27:56.293Z,3.25
2022-12-16T01:30:24.838Z,9.80
2022-12-16T01:32:51.941Z,6.18
2022-12-16T01:35:51.313Z,11.65
2022-12-16T01:38:06.625Z,7.57
2022-12-16T01:40:33.743Z,6.28
2022-12-16T01:43:00.846Z,3.65
2022-12-16T01:45:36.240Z,4.85
2022-12-16T01:48:44.960Z,0.65
2022-12-16T01:51:34.878Z,2.55
2022-12-16T01:54:12.055Z,4.03
2022-12-16T01:56:44.303Z,6.20
2022-12-16T01:59:14.053Z,4.90
2022-12-16T02:01:41.538Z,7.72
2022-12-16T02:04:08.746Z,5.72
2022-12-16T02:06:35.935Z,3.25
2022-12-16T02:09:11.018Z,7.43
2022-12-16T02:11:40.926Z,4.68
2022-12-16T02:14:31.306Z,1.13
2022-12-16T02:17:09.838Z,8.02
2022-12-16T02:19:58.665Z,5.57
2022-12-16T02:22:56.072Z,14.15
2022-12-16T02:25:53.986Z,3.63
2022-12-16T02:28:29.977Z,1.92
2022-12-16T02:31:03.284Z,8.23
2022-12-16T02:33:42.342Z,18.30
2022-12-16T02:36:25.659Z,14.35
2022-12-16T02:39:02.509Z,16.83
2022-12-16T02:41:50.872Z,22.25
2022-12-16T02:44:21.358Z,22.70
2022-12-16T02:46:56.162Z,22.55
2022-12-16T02:49:23.237Z,22.85
2022-12-16T02:51:50.717Z,21.45
2022-12-16T02:54:19.193Z,21.23
2022-12-16T02:57:16.869Z,22.40
2022-12-16T02:59:56.038Z,20.80
2022-12-16T03:02:38.142Z,20.58
2022-12-16T03:05:24.596Z,21.48
2022-12-16T03:07:53.700Z,21.77
2022-12-16T03:10:25.188Z,20.63
2022-12-16T03:12:54.487Z,21.17
2022-12-16T03:15:26.079Z,20.88
2022-12-16T03:17:54.587Z,21.00
2022-12-16T03:20:50.400Z,20.60
2022-12-16T03:23:23.285Z,19.73
2022-12-16T03:25:54.883Z,19.75
2022-12-16T03:28:27.928Z,19.02
2022-12-16T03:31:06.804Z,14.55
2022-12-16T03:33:41.627Z,19.05
2022-12-16T03:36:17.750Z,16.55
2022-12-16T03:38:45.942Z,20.23
2022-12-16T03:41:15.636Z,20.27
2022-12-16T03:43:43.455Z,18.33
2022-12-16T03:46:12.187Z,19.17
2022-12-16T03:48:54.699Z,17.30
2022-12-16T03:51:21.844Z,16.83
2022-12-16T03:53:49.079Z,18.60
2022-12-16T03:56:16.590Z,18.48
2022-12-16T03:58:43.975Z,18.75
2022-12-16T04:01:11.249Z,17.90
2022-12-16T04:03:39.008Z,17.52
2022-12-16T04:06:06.680Z,18.85
2022-12-16T04:08:33.862Z,17.05
2022-12-16T04:11:19.191Z,17.38
2022-12-16T04:14:05.030Z,17.30
2022-12-16T04:16:50.720Z,16.80
2022-12-16T04:19:44.646Z,17.20
2022-12-16T04:22:55.648Z,17.27
2022-12-16T04:25:26.660Z,17.60
2022-12-16T04:27:53.749Z,17.77
2022-12-16T04:30:21.905Z,19.65
2022-12-16T04:33:20.866Z,19.70
2022-12-16T04:36:07.195Z,19.25
2022-12-16T04:39:00.403Z,18.23
2022-12-16T04:41:46.054Z,18.15
2022-12-16T04:44:31.916Z,18.67
2022-12-16T04:47:17.772Z,18.35
2022-12-16T04:50:03.539Z,18.10
2022-12-16T04:52:49.238Z,18.85
2022-12-16T04:55:34.933Z,19.15
2022-12-16T04:58:21.079Z,18.80
2022-12-16T05:01:08.338Z,19.75
2022-12-16T05:03:54.642Z,19.63
2022-12-16T05:06:40.255Z,20.38
2022-12-16T05:09:26.745Z,18.58
2022-12-16T05:12:12.577Z,20.08
2022-12-16T05:14:58.532Z,20.73
2022-12-16T05:17:44.325Z,20.80
2022-12-16T05:20:30.124Z,20.08
2022-12-16T05:23:16.475Z,20.60
2022-12-16T05:26:02.143Z,20.77
2022-12-16T05:28:47.860Z,20.65
2022-12-16T05:31:33.788Z,20.40
2022-12-16T05:34:19.571Z,21.42
2022-12-16T05:37:05.588Z,21.80
2022-12-16T05:39:51.184Z,21.52
2022-12-16T05:42:36.919Z,20.90
2022-12-16T05:45:23.108Z,21.70
2022-12-16T05:48:08.795Z,22.48
2022-12-16T05:50:55.307Z,21.00
2022-12-16T05:53:41.769Z,21.58
2022-12-16T05:56:27.449Z,22.42
2022-12-16T05:59:13.242Z,22.17
2022-12-16T06:01:59.033Z,23.70
2022-12-16T06:04:44.630Z,23.48
2022-12-16T06:07:30.401Z,24.25
2022-12-16T06:10:16.073Z,24.65
2022-12-16T06:13:05.796Z,23.30
2022-12-16T06:15:51.541Z,25.35
2022-12-16T06:18:37.307Z,23.95
2022-12-16T06:21:23.040Z,24.15
2022-12-16T06:24:08.650Z,22.85
2022-12-16T06:26:54.367Z,24.95
2022-12-16T06:29:40.079Z,24.20
2022-12-16T06:32:25.782Z,25.23
2022-12-16T06:35:11.606Z,22.63
2022-12-16T06:37:57.285Z,24.20
2022-12-16T06:40:43.055Z,23.13
2022-12-16T06:43:28.501Z,23.13
2022-12-16T06:46:30.961Z,23.42
2022-12-16T06:49:16.554Z,23.88
2022-12-16T06:52:02.274Z,25.33
2022-12-16T06:54:47.911Z,22.55
2022-12-16T06:57:33.291Z,26.23
2022-12-16T07:00:19.767Z,23.15
2022-12-16T07:03:05.385Z,22.40
2022-12-16T07:05:51.171Z,24.58
2022-12-16T07:08:36.899Z,24.17
2022-12-16T07:11:22.438Z,24.90
2022-12-16T07:14:08.084Z,25.58
2022-12-16T07:16:53.458Z,26.92
2022-12-16T07:19:39.047Z,24.02
2022-12-16T07:22:24.612Z,24.48
2022-12-16T07:25:10.373Z,23.73
2022-12-16T07:27:56.093Z,24.35
2022-12-16T07:30:41.837Z,24.40
2022-12-16T07:33:28.757Z,25.58
2022-12-16T07:36:14.334Z,24.55
2022-12-16T07:39:00.135Z,25.02
2022-12-16T07:41:45.884Z,23.60
2022-12-16T07:44:31.529Z,25.70
2022-12-16T07:47:17.172Z,27.15
2022-12-16T07:50:02.971Z,26.05
2022-12-16T07:52:48.866Z,27.90
2022-12-16T07:55:34.673Z,31.27
2022-12-16T07:58:20.306Z,28.23
2022-12-16T08:01:09.473Z,29.13
2022-12-16T08:03:55.906Z,28.00
2022-12-16T08:06:42.088Z,27.27
2022-12-16T08:09:27.822Z,28.10
2022-12-16T08:12:13.633Z,28.27
2022-12-16T08:14:59.341Z,26.50
2022-12-16T08:17:45.039Z,27.25
2022-12-16T08:20:30.699Z,26.25
2022-12-16T08:23:16.584Z,27.30
2022-12-16T08:26:02.250Z,26.13
2022-12-16T08:28:48.304Z,26.70
2022-12-16T08:31:33.892Z,26.67
2022-12-16T08:34:20.150Z,25.73
2022-12-16T08:37:05.959Z,27.67
2022-12-16T08:40:17.746Z,26.40
2022-12-16T08:42:57.793Z,26.08
2022-12-16T08:45:43.711Z,26.38
2022-12-16T08:48:31.158Z,26.67
2022-12-16T08:51:21.182Z,26.50
2022-12-16T08:54:06.732Z,25.75
2022-12-16T08:56:52.457Z,26.20
2022-12-16T08:59:38.225Z,26.83
2022-12-16T09:02:24.079Z,26.88
2022-12-16T09:05:09.633Z,25.20
2022-12-16T09:07:55.496Z,26.17
2022-12-16T09:10:41.352Z,24.50
2022-12-16T09:13:31.222Z,25.20
2022-12-16T09:16:19.770Z,24.35
2022-12-16T09:19:06.180Z,41.55
2022-12-16T09:21:51.907Z,25.65
2022-12-16T09:24:37.753Z,25.98
2022-12-16T09:27:23.430Z,24.15
2022-12-16T09:30:09.094Z,22.70
2022-12-16T09:32:59.315Z,23.70
2022-12-16T09:35:45.088Z,23.70
2022-12-16T09:38:30.822Z,24.23
2022-12-16T09:41:17.712Z,23.95
2022-12-16T09:44:28.147Z,25.20
2022-12-16T09:47:25.893Z,24.83
2022-12-16T09:50:13.314Z,23.27
2022-12-16T09:53:05.426Z,22.23
2022-12-16T09:55:59.695Z,22.17
2022-12-16T09:58:51.259Z,20.77
2022-12-16T10:01:37.381Z,21.13
2022-12-16T10:04:25.040Z,21.48
2022-12-16T10:07:18.212Z,18.77
2022-12-16T10:10:07.033Z,18.48
2022-12-16T10:13:02.382Z,18.08
2022-12-16T10:16:00.081Z,18.08
2022-12-16T10:19:04.517Z,16.35
2022-12-16T10:22:02.789Z,17.85
2022-12-16T10:24:57.086Z,18.75
2022-12-16T10:27:55.366Z,16.90
2022-12-16T10:30:41.050Z,16.77
2022-12-16T10:33:32.911Z,16.98
2022-12-16T10:36:19.640Z,17.02
2022-12-16T10:39:16.387Z,16.63
2022-12-16T10:42:07.798Z,17.83
2022-12-16T10:45:11.341Z,17.30
2022-12-16T10:47:57.032Z,18.02
2022-12-16T10:50:42.844Z,18.08
2022-12-16T10:53:41.748Z,17.90
2022-12-16T10:57:04.141Z,19.77
2022-12-16T10:59:58.110Z,18.90
2022-12-16T11:02:46.789Z,19.17
2022-12-16T11:05:44.481Z,21.02
2022-12-16T11:08:45.542Z,18.55
2022-12-16T11:11:50.023Z,19.02
2022-12-16T11:15:27.653Z,17.13
2022-12-16T11:17:50.825Z,18.05
2022-12-16T11:20:42.489Z,17.48
2022-12-16T11:23:36.683Z,17.08
2022-12-16T11:26:36.269Z,17.00
2022-12-16T11:29:28.228Z,17.35
2022-12-16T11:32:45.128Z,17.75
2022-12-16T11:35:39.002Z,15.90
2022-12-16T11:38:41.412Z,16.55
2022-12-16T11:41:31.855Z,19.52
2022-12-16T11:44:19.025Z,18.88
2022-12-16T11:47:05.313Z,19.17
2022-12-16T11:49:52.194Z,17.23
2022-12-16T11:52:40.226Z,17.15
2022-12-16T11:56:04.119Z,17.30
2022-12-16T11:59:04.045Z,17.58
2022-12-16T12:01:56.446Z,16.80
2022-12-16T12:04:42.249Z,17.00
2022-12-16T12:07:42.844Z,16.67
2022-12-16T12:11:01.710Z,17.52
2022-12-16T12:13:58.105Z,16.45
2022-12-16T12:16:47.043Z,17.42
2022-12-16T12:20:05.211Z,18.58
2022-12-16T12:22:54.787Z,17.65
2022-12-16T12:25:54.203Z,17.45
2022-12-16T12:29:03.730Z,17.40
2022-12-16T12:32:03.840Z,18.80
2022-12-16T12:35:00.991Z,20.02
2022-12-16T12:38:03.995Z,19.58
2022-12-16T12:40:55.277Z,23.95
2022-12-16T12:44:09.256Z,22.02
2022-12-16T12:46:54.559Z,21.42
2022-12-16T12:49:45.519Z,21.35
2022-12-16T12:53:01.539Z,19.17
2022-12-16T12:58:34.778Z,19.45
2022-12-16T13:01:24.629Z,18.38
2022-12-16T13:04:20.119Z,19.20
2022-12-16T13:07:06.301Z,20.65
2022-12-16T13:09:52.968Z,22.42
2022-12-16T13:12:43.299Z,21.75
2022-12-16T13:15:54.903Z,21.42
2022-12-16T13:18:40.660Z,21.60
2022-12-16T13:21:56.331Z,22.00
2022-12-16T13:24:45.685Z,21.98
2022-12-16T13:27:35.665Z,23.33
2022-12-16T13:30:30.741Z,28.85
2022-12-16T13:33:37.120Z,32.75
2022-12-16T13:36:23.097Z,31.95
2022-12-16T13:39:11.893Z,31.30
2022-12-16T13:41:57.566Z,26.58
2022-12-16T13:45:01.255Z,24.98
2022-12-16T13:48:00.764Z,22.48
2022-12-16T13:51:06.485Z,25.55
2022-12-16T13:54:05.856Z,27.02
2022-12-16T13:57:03.734Z,26.67
2022-12-16T13:59:51.945Z,29.48
2022-12-16T14:02:43.780Z,31.15
2022-12-16T14:05:42.784Z,28.63
2022-12-16T14:08:41.406Z,28.30
2022-12-16T14:11:58.097Z,28.15
2022-12-16T14:14:51.496Z,28.45
2022-12-16T14:17:52.408Z,27.95
2022-12-16T14:20:49.137Z,28.13
2022-12-16T14:23:57.594Z,26.33
2022-12-16T14:26:44.553Z,25.92
2022-12-16T14:29:49.173Z,25.48
2022-12-16T14:32:51.112Z,28.23
2022-12-16T14:35:39.675Z,27.08
2022-12-16T14:38:49.230Z,25.90
2022-12-16T14:41:39.432Z,25.42
2022-12-16T14:44:36.401Z,29.13
2022-12-16T14:47:22.172Z,26.92
2022-12-16T14:50:12.443Z,34.10
2022-12-16T14:52:58.537Z,31.08
2022-12-16T14:55:50.180Z,27.27
2022-12-16T14:58:42.717Z,28.33
2022-12-16T15:01:36.435Z,28.90
2022-12-16T15:04:30.619Z,29.00
2022-12-16T15:07:18.735Z,29.08
2022-12-16T15:10:08.988Z,29.15
2022-12-16T15:12:57.488Z,29.23
2022-12-16T15:16:00.985Z,29.65
2022-12-16T15:18:53.455Z,28.65
2022-12-16T15:21:39.417Z,26.50
2022-12-16T15:24:36.666Z,27.60
2022-12-16T15:27:40.424Z,25.65
2022-12-16T15:30:52.973Z,28.17
2022-12-16T15:33:42.051Z,27.63
2022-12-16T15:36:40.579Z,29.52
2022-12-16T15:39:54.456Z,32.88
2022-12-16T15:42:51.777Z,32.38
2022-12-16T15:46:06.652Z,37.50
2022-12-16T15:48:54.256Z,37.90
2022-12-16T15:52:00.176Z,38.67
2022-12-16T15:54:46.023Z,37.80
2022-12-16T15:57:50.634Z,37.83
2022-12-16T16:00:47.738Z,37.13
2022-12-16T16:03:46.006Z,42.75
2022-12-16T16:06:45.511Z,37.42
2022-12-16T16:09:44.667Z,36.35
2022-12-16T16:12:32.566Z,34.35
2022-12-16T16:15:18.552Z,32.90
2022-12-16T16:18:12.002Z,33.03
2022-12-16T16:20:57.678Z,32.78
2022-12-16T16:23:43.814Z,30.63
2022-12-16T16:26:34.606Z,31.05
2022-12-16T16:29:20.270Z,28.77
2022-12-16T16:32:06.094Z,31.13
2022-12-16T16:34:51.912Z,32.58
2022-12-16T16:37:39.514Z,30.27
2022-12-16T16:40:55.805Z,30.40
2022-12-16T16:43:42.647Z,29.67
2022-12-16T16:46:40.203Z,31.40
2022-12-16T16:49:30.090Z,30.17
2022-12-16T16:52:15.895Z,29.35
2022-12-16T16:55:01.736Z,24.98
2022-12-16T16:57:51.493Z,24.80
2022-12-16T17:00:37.393Z,24.63
2022-12-16T17:03:23.799Z,25.00
2022-12-16T17:06:09.403Z,24.33
2022-12-16T17:08:54.983Z,25.77
2022-12-16T17:11:41.825Z,25.83
2022-12-16T17:14:32.390Z,29.40
2022-12-16T17:17:18.200Z,32.45
2022-12-16T17:20:03.905Z,31.00
2022-12-16T17:22:50.079Z,30.15
2022-12-16T17:25:36.272Z,29.52
2022-12-16T17:28:22.955Z,29.00
2022-12-16T17:31:08.912Z,28.15
2022-12-16T17:33:54.612Z,28.05
2022-12-16T17:36:40.297Z,26.92
2022-12-16T17:39:27.664Z,27.80
2022-12-16T17:42:33.100Z,28.55
2022-12-16T17:45:18.784Z,30.05
2022-12-16T17:48:04.564Z,31.40
2022-12-16T17:50:50.470Z,28.92
2022-12-16T17:53:36.655Z,25.27
2022-12-16T17:56:43.988Z,28.83
2022-12-16T17:59:29.544Z,28.67
2022-12-16T18:02:15.690Z,25.63
2022-12-16T18:05:01.321Z,30.13
2022-12-16T18:07:47.241Z,31.83
2022-12-16T18:10:33.040Z,33.70
2022-12-16T18:13:19.300Z,35.63
2022-12-16T18:16:11.066Z,32.47
2022-12-16T18:18:57.166Z,33.50
2022-12-16T18:21:43.537Z,34.05
2022-12-16T18:24:29.858Z,31.63
2022-12-16T18:27:16.114Z,31.45
2022-12-16T18:30:02.093Z,33.75
2022-12-16T18:32:47.863Z,32.42
2022-12-16T18:35:33.937Z,32.78
2022-12-16T18:38:20.053Z,34.35
2022-12-16T18:41:06.316Z,33.20
2022-12-16T18:43:53.600Z,34.63
2022-12-16T18:46:39.440Z,33.03
2022-12-16T18:49:25.541Z,33.88
2022-12-16T18:52:11.807Z,30.77
2022-12-16T18:54:57.933Z,32.08
2022-12-16T18:57:43.991Z,32.88
2022-12-16T19:00:30.200Z,30.30
2022-12-16T19:03:16.367Z,30.42
2022-12-16T19:06:02.216Z,31.00
2022-12-16T19:08:48.769Z,30.42
2022-12-16T19:11:34.971Z,30.90
2022-12-16T19:14:20.888Z,30.77
2022-12-16T19:17:07.129Z,30.25
2022-12-16T19:19:52.616Z,33.13
2022-12-16T19:22:38.704Z,29.75
2022-12-16T19:25:25.096Z,30.90
2022-12-16T19:28:11.656Z,30.60
2022-12-16T19:30:57.600Z,30.52
2022-12-16T19:33:43.847Z,30.15
2022-12-16T19:36:29.571Z,27.77
2022-12-16T19:39:15.355Z,29.45
2022-12-16T19:42:01.201Z,29.98
2022-12-16T19:44:48.565Z,28.58
2022-12-16T19:47:35.298Z,30.35
2022-12-16T19:50:21.003Z,26.60
2022-12-16T19:53:07.253Z,27.60
2022-12-16T19:55:53.293Z,30.52
2022-12-16T19:58:42.610Z,28.35
2022-12-16T20:01:28.522Z,28.20
2022-12-16T20:04:25.658Z,33.83
2022-12-16T20:07:11.665Z,29.60
2022-12-16T20:09:57.462Z,27.58
2022-12-16T20:12:43.551Z,29.20
2022-12-16T20:15:29.620Z,26.73
2022-12-16T20:18:15.661Z,27.95
2022-12-16T20:21:01.630Z,28.13
2022-12-16T20:23:58.021Z,26.25
2022-12-16T20:26:43.704Z,26.67
2022-12-16T20:29:29.355Z,26.83
2022-12-16T20:32:15.010Z,26.10
2022-12-16T20:35:05.425Z,25.38
2022-12-16T20:37:51.700Z,26.42
2022-12-16T20:40:37.987Z,26.23
2022-12-16T20:43:24.923Z,27.08
2022-12-16T20:46:14.060Z,27.30
2022-12-16T20:48:59.989Z,26.27
2022-12-16T20:51:46.057Z,26.85
2022-12-16T20:54:32.144Z,27.25
2022-12-16T20:57:18.175Z,27.20
2022-12-16T21:00:17.680Z,26.98
2022-12-16T21:03:03.767Z,26.60
2022-12-16T21:05:49.699Z,27.23
2022-12-16T21:08:35.718Z,26.15
2022-12-16T21:11:21.818Z,28.70
2022-12-16T21:14:07.574Z,28.73
2022-12-16T21:16:55.906Z,29.38
2022-12-16T21:19:42.168Z,30.30
2022-12-16T21:22:28.109Z,28.92
2022-12-16T21:25:13.934Z,28.15
2022-12-16T21:27:59.588Z,28.35
2022-12-16T21:30:46.201Z,28.63
2022-12-16T21:33:39.370Z,27.90
2022-12-16T21:36:25.734Z,27.17
2022-12-16T21:39:12.429Z,28.55
2022-12-16T21:41:58.194Z,29.15
2022-12-16T21:44:43.995Z,28.45
2022-12-16T21:47:29.680Z,29.05
2022-12-16T21:50:15.482Z,28.25
2022-12-16T21:53:01.836Z,29.58
2022-12-16T21:55:47.580Z,30.20
2022-12-16T21:58:33.353Z,29.25
2022-12-16T22:01:19.064Z,30.08
2022-12-16T22:04:04.744Z,28.95
2022-12-16T22:06:50.592Z,30.35
2022-12-16T22:09:36.444Z,29.80
2022-12-16T22:12:22.403Z,29.45
2022-12-16T22:15:08.179Z,28.90
2022-12-16T22:17:58.281Z,27.25
2022-12-16T22:20:45.398Z,30.10
2022-12-16T22:23:31.317Z,29.08
2022-12-16T22:26:18.562Z,29.55
2022-12-16T22:29:04.237Z,28.70
2022-12-16T22:31:50.036Z,28.40
2022-12-16T22:34:35.708Z,28.45
2022-12-16T22:37:21.463Z,27.92
2022-12-16T22:40:07.231Z,27.75
2022-12-16T22:42:52.920Z,29.27
2022-12-16T22:45:39.821Z,28.48
2022-12-16T22:48:25.612Z,28.55
2022-12-16T22:51:11.417Z,27.60
2022-12-16T22:53:57.127Z,28.13
2022-12-16T22:56:42.948Z,27.23
2022-12-16T22:59:30.338Z,28.25
2022-12-16T23:02:16.290Z,27.92
2022-12-16T23:05:01.945Z,27.40
2022-12-16T23:07:47.860Z,27.02
2022-12-16T23:10:33.527Z,26.80
2022-12-16T23:13:19.349Z,28.08
2022-12-16T23:16:06.287Z,26.75
2022-12-16T23:18:52.141Z,25.40
2022-12-16T23:21:38.663Z,26.48
2022-12-16T23:24:24.989Z,28.10
2022-12-16T23:27:10.663Z,25.38
2022-12-16T23:29:56.694Z,24.15
2022-12-16T23:32:43.717Z,23.00
2022-12-16T23:35:29.798Z,24.20
2022-12-16T23:38:24.383Z,23.13
2022-12-16T23:41:20.085Z,23.52
2022-12-16T23:44:05.975Z,23.63
2022-12-16T23:46:51.887Z,22.38
2022-12-16T23:49:39.603Z,23.20
2022-12-16T23:52:25.372Z,23.33
2022-12-16T23:55:11.262Z,24.55
2022-12-16T23:57:56.933Z,22.90
